Time;durP1;ratioP1;P1;durP2;ratioP2;P2;SDS_P1;SDS_P2;PMS_P1;PMS_P2;Temp;Humidity;BMP_temperature;BMP_pressure;BME280_temperature;BME280_humidity;BME280_pressure;Samples;Min_cycle;Max_cycle;Signal;HPM_P1;HPM_P2
2022/04/08 00:01:53;;;;;;;0.00;0.00;;;;;;;13.99;61.53;97511.28;6246300;22;20061;-79
2022/04/08 00:04:19;;;;;;;0.00;0.00;;;;;;;13.97;61.65;97511.63;6245159;22;20397;-80
2022/04/08 00:06:44;;;;;;;0.00;0.00;;;;;;;13.97;61.18;97508.94;6245944;22;20042;-79
2022/04/08 00:09:10;;;;;;;0.00;0.00;;;;;;;13.97;61.01;97502.78;6245463;22;20015;-81
2022/04/08 00:11:35;;;;;;;0.00;0.00;;;;;;;13.91;61.16;97507.59;6245929;22;20075;-81
2022/04/08 00:14:01;;;;;;;0.10;0.10;;;;;;;13.89;60.87;97515.22;6245631;22;20014;-80
2022/04/08 00:16:27;;;;;;;0.00;0.00;;;;;;;13.82;61.27;97515.78;6245669;22;20016;-81
2022/04/08 00:18:53;;;;;;;0.00;0.00;;;;;;;13.82;61.08;97520.34;6245486;22;20088;-83
2022/04/08 00:21:18;;;;;;;0.00;0.00;;;;;;;13.81;60.85;97513.44;6247250;22;20040;-82
2022/04/08 00:23:45;;;;;;;0.00;0.00;;;;;;;13.79;61.09;97521.03;6247415;22;20007;-84
2022/04/08 00:26:11;;;;;;;0.00;0.00;;;;;;;13.78;60.97;97525.63;6247325;22;20016;-81
2022/04/08 00:28:36;;;;;;;0.00;0.00;;;;;;;13.77;61.03;97526.75;6247496;22;20089;-81
2022/04/08 00:31:04;;;;;;;0.00;0.00;;;;;;;13.75;61.18;97531.66;6247158;22;20011;-79
2022/04/08 00:33:32;;;;;;;0.00;0.00;;;;;;;13.69;61.48;97535.69;6247352;22;20157;-78
2022/04/08 00:35:58;;;;;;;0.00;0.00;;;;;;;13.75;61.52;97537.03;6246972;22;20094;-83
2022/04/08 00:38:23;;;;;;;0.10;0.10;;;;;;;13.67;61.45;97533.34;6247334;22;20373;-82
2022/04/08 00:40:49;;;;;;;0.00;0.00;;;;;;;13.67;61.58;97529.84;6247263;22;20502;-83
2022/04/08 00:43:16;;;;;;;0.10;0.10;;;;;;;13.71;61.65;97542.28;6247149;22;20003;-83
2022/04/08 00:45:43;;;;;;;0.10;0.10;;;;;;;13.68;61.37;97545.63;6247560;22;20385;-83
2022/04/08 00:48:08;;;;;;;0.10;0.10;;;;;;;13.70;61.52;97550.69;6246852;22;20003;-82
2022/04/08 00:50:39;;;;;;;0.00;0.00;;;;;;;13.70;61.43;97546.09;6247274;22;20087;-83
2022/04/08 00:53:05;;;;;;;0.00;0.00;;;;;;;13.72;61.34;97557.28;6247113;22;20007;-81
2022/04/08 00:55:30;;;;;;;0.00;0.00;;;;;;;13.73;61.17;97560.75;6247335;22;20023;-79
2022/04/08 00:57:56;;;;;;;0.00;0.00;;;;;;;13.65;61.47;97559.75;6247226;22;20004;-80
2022/04/08 01:00:24;;;;;;;0.43;0.43;;;;;;;13.64;61.42;97566.22;6246349;22;20008;-82
2022/04/08 01:02:49;;;;;;;0.00;0.00;;;;;;;13.61;61.44;97567.69;6247067;22;20357;-80
2022/04/08 01:05:15;;;;;;;0.08;0.08;;;;;;;13.62;61.57;97565.75;6247031;22;20003;-83
2022/04/08 01:07:40;;;;;;;0.00;0.00;;;;;;;13.63;61.59;97577.31;6247341;22;20015;-83
2022/04/08 01:10:06;;;;;;;0.00;0.00;;;;;;;13.62;61.38;97576.50;6246730;22;20011;-82
2022/04/08 01:12:32;;;;;;;0.45;0.45;;;;;;;13.61;61.43;97573.06;6247039;22;20016;-80
2022/04/08 01:15:00;;;;;;;0.00;0.00;;;;;;;13.59;61.13;97577.97;6247105;22;20007;-80
2022/04/08 01:17:26;;;;;;;0.10;0.10;;;;;;;13.60;61.25;97576.06;6246944;22;20042;-82
2022/04/08 01:19:53;;;;;;;0.10;0.10;;;;;;;13.58;61.30;97572.94;6246879;22;20003;-79
2022/04/08 01:22:19;;;;;;;0.10;0.10;;;;;;;13.60;60.88;97576.84;6246872;22;20141;-81
2022/04/08 01:24:48;;;;;;;0.05;0.05;;;;;;;13.63;60.95;97586.16;6246923;22;20014;-82
2022/04/08 01:27:17;;;;;;;0.00;0.00;;;;;;;13.63;60.82;97586.16;6246645;22;20077;-82
2022/04/08 01:29:42;;;;;;;0.10;0.10;;;;;;;13.64;60.67;97587.72;6246827;22;20087;-79
2022/04/08 01:32:08;;;;;;;0.00;0.00;;;;;;;13.69;60.97;97584.81;6246580;22;20042;-79
2022/04/08 01:34:34;;;;;;;0.00;0.00;;;;;;;13.70;60.61;97588.31;6246757;22;20079;-83
2022/04/08 01:36:59;;;;;;;0.00;0.00;;;;;;;13.74;60.31;97590.00;6246925;22;20141;-78
2022/04/08 01:39:24;;;;;;;1.20;1.10;;;;;;;13.76;60.09;97593.13;6246715;22;20008;-79
2022/04/08 01:41:50;;;;;;;0.10;0.10;;;;;;;13.79;60.10;97590.88;6246796;22;20011;-80
2022/04/08 01:44:15;;;;;;;0.00;0.00;;;;;;;13.81;60.29;97599.41;6246514;22;20157;-82
2022/04/08 01:46:41;;;;;;;0.10;0.10;;;;;;;13.84;60.12;97591.47;6273693;22;20031;-81
2022/04/08 01:49:06;;;;;;;0.00;0.00;;;;;;;13.87;60.08;97595.41;6246467;22;20335;-81
2022/04/08 01:51:31;;;;;;;0.00;0.00;;;;;;;13.89;59.91;97595.81;6246707;22;20413;-82
2022/04/08 01:53:57;;;;;;;0.00;0.00;;;;;;;13.93;59.64;97594.06;6246423;22;20017;-85
2022/04/08 01:56:22;;;;;;;0.00;0.00;;;;;;;13.87;59.67;97604.22;6246529;22;20073;-77
2022/04/08 01:58:47;;;;;;;0.00;0.00;;;;;;;13.87;59.93;97601.53;6246663;22;20448;-78
2022/04/08 02:01:13;;;;;;;0.00;0.00;;;;;;;13.90;60.08;97598.19;6246602;22;20014;-77
2022/04/08 02:03:38;;;;;;;0.00;0.00;;;;;;;13.86;59.95;97599.97;6246416;22;20467;-78
2022/04/08 02:06:04;;;;;;;0.03;0.03;;;;;;;13.87;60.39;97600.75;6246308;22;20488;-79
2022/04/08 02:08:29;;;;;;;0.05;0.05;;;;;;;13.86;60.44;97591.13;6246668;22;20086;-78
2022/04/08 02:10:54;;;;;;;0.00;0.00;;;;;;;13.86;60.42;97596.50;6247820;22;20086;-80
2022/04/08 02:13:20;;;;;;;0.00;0.00;;;;;;;13.87;60.48;97600.75;6248578;22;20015;-81
2022/04/08 02:15:48;;;;;;;0.10;0.10;;;;;;;13.87;60.22;97600.75;6248178;22;20011;-80
2022/04/08 02:18:14;;;;;;;0.00;0.00;;;;;;;13.86;60.65;97605.34;6248692;22;20344;-80
2022/04/08 02:20:41;;;;;;;0.00;0.00;;;;;;;13.86;60.18;97599.97;6248729;22;20087;-80
2022/04/08 02:23:07;;;;;;;0.00;0.00;;;;;;;13.85;60.30;97595.69;6248229;22;20015;-80
2022/04/08 02:25:33;;;;;;;0.00;0.00;;;;;;;13.83;60.45;97606.03;6248921;22;20004;-80
2022/04/08 02:27:59;;;;;;;0.00;0.00;;;;;;;13.81;60.61;97602.09;6248391;22;20354;-81
2022/04/08 02:30:25;;;;;;;0.00;0.00;;;;;;;13.81;60.32;97605.56;6248676;22;20096;-78
2022/04/08 02:32:50;;;;;;;0.00;0.00;;;;;;;13.81;60.21;97618.22;6248600;22;20003;-77
2022/04/08 02:35:16;;;;;;;0.10;0.10;;;;;;;13.81;59.85;97610.94;6275411;22;20004;-77
2022/04/08 02:37:42;;;;;;;0.00;0.00;;;;;;;13.77;60.10;97608.13;6248594;22;20035;-77
2022/04/08 02:40:08;;;;;;;0.00;0.00;;;;;;;13.74;60.11;97605.31;6248198;22;20011;-76
2022/04/08 02:42:33;;;;;;;0.10;0.10;;;;;;;13.74;59.79;97608.81;6248484;22;20007;-76
2022/04/08 02:44:59;;;;;;;0.10;0.10;;;;;;;13.72;60.01;97613.72;6275117;22;20014;-77
2022/04/08 02:47:24;;;;;;;0.10;0.10;;;;;;;13.72;59.96;97621.78;6247966;22;20007;-77
2022/04/08 02:49:50;;;;;;;0.10;0.10;;;;;;;13.66;59.63;97612.34;6275555;22;20129;-76
2022/04/08 02:52:16;;;;;;;0.00;0.00;;;;;;;13.69;59.95;97624.34;6248115;22;20010;-77
2022/04/08 02:54:41;;;;;;;0.00;0.00;;;;;;;13.62;59.80;97608.75;6275529;22;20015;-78
2022/04/08 02:57:06;;;;;;;0.00;0.00;;;;;;;13.57;59.48;97617.00;6247789;22;20007;-78
2022/04/08 02:59:32;;;;;;;0.00;0.00;;;;;;;13.56;59.30;97621.63;6275603;22;20053;-79
2022/04/08 03:01:58;;;;;;;0.00;0.00;;;;;;;13.48;58.62;97619.00;6248163;22;20004;-82
2022/04/08 03:04:25;;;;;;;0.00;0.00;;;;;;;13.38;58.58;97617.53;6275236;22;20000;-83
2022/04/08 03:06:51;;;;;;;0.00;0.00;;;;;;;13.29;58.06;97621.03;6248412;22;20015;-79
2022/04/08 03:09:16;;;;;;;0.00;0.00;;;;;;;13.26;57.91;97631.63;6247862;22;20410;-80
2022/04/08 03:11:42;;;;;;;0.00;0.00;;;;;;;13.24;56.99;97625.81;6248591;22;20003;-80
2022/04/08 03:14:07;;;;;;;0.00;0.00;;;;;;;13.21;56.73;97632.63;6247753;22;20004;-80
2022/04/08 03:16:33;;;;;;;0.00;0.00;;;;;;;13.22;56.56;97626.13;6231785;23;20366;-82
2022/04/08 03:18:58;;;;;;;0.00;0.00;;;;;;;13.22;56.04;97641.44;6242849;23;20000;-82
2022/04/08 03:21:24;;;;;;;0.00;0.00;;;;;;;13.23;55.84;97646.50;6242263;23;20008;-85
2022/04/08 03:23:49;;;;;;;0.00;0.00;;;;;;;13.24;55.25;97653.44;6217663;23;20007;-85
2022/04/08 03:26:15;;;;;;;0.40;0.38;;;;;;;13.29;55.45;97657.81;6217162;23;20012;-85
2022/04/08 03:28:42;;;;;;;0.00;0.00;;;;;;;13.29;55.18;97660.50;6217504;23;20560;-85
2022/04/08 03:31:08;;;;;;;0.00;0.00;;;;;;;13.32;55.11;97669.78;6217420;23;20476;-84
2022/04/08 03:33:34;;;;;;;0.63;0.47;;;;;;;13.35;54.62;97666.47;6217441;23;20004;-84
2022/04/08 03:35:59;;;;;;;0.43;0.43;;;;;;;13.34;54.38;97671.06;6217177;23;20016;-85
2022/04/08 03:38:25;;;;;;;0.00;0.00;;;;;;;13.35;54.74;97671.84;6217644;23;20008;-85
2022/04/08 03:40:50;;;;;;;0.00;0.00;;;;;;;13.36;54.54;97671.50;6217493;23;20039;-85
2022/04/08 03:43:15;;;;;;;0.00;0.00;;;;;;;13.37;54.54;97678.44;6217104;23;20418;-85
2022/04/08 03:45:41;;;;;;;0.00;0.00;;;;;;;13.36;54.54;97676.09;6216895;23;20019;-84
2022/04/08 03:48:07;;;;;;;0.00;0.00;;;;;;;13.38;54.09;97680.06;6216886;23;20082;-82
2022/04/08 03:50:32;;;;;;;0.00;0.00;;;;;;;13.37;53.80;97675.00;6217495;23;20004;-78
2022/04/08 03:52:58;;;;;;;0.00;0.00;;;;;;;13.41;53.57;97681.28;6244048;23;20331;-77
2022/04/08 03:55:23;;;;;;;0.03;0.03;;;;;;;13.41;53.45;97678.59;6217024;23;20079;-79
2022/04/08 03:57:49;;;;;;;0.10;0.10;;;;;;;13.39;53.70;97678.13;6243916;23;20079;-76
2022/04/08 04:00:15;;;;;;;0.17;0.17;;;;;;;13.40;53.55;97677.03;6217104;23;20083;-76
2022/04/08 04:02:40;;;;;;;0.10;0.10;;;;;;;13.40;53.32;97664.41;6217244;23;20008;-82
2022/04/08 04:05:06;;;;;;;0.00;0.00;;;;;;;13.44;53.16;97661.84;6243847;23;20004;-78
2022/04/08 04:07:35;;;;;;;0.05;0.05;;;;;;;13.49;53.11;97664.34;6217143;23;20437;-79
2022/04/08 04:10:00;;;;;;;0.00;0.00;;;;;;;13.54;52.91;97672.19;6217175;23;20035;-76
2022/04/08 04:12:26;;;;;;;0.00;0.00;;;;;;;13.60;52.88;97668.19;6217078;23;20460;-80
2022/04/08 04:14:53;;;;;;;0.10;0.10;;;;;;;13.71;52.37;97670.47;6217033;23;20015;-77
2022/04/08 04:17:19;;;;;;;0.03;0.03;;;;;;;13.82;52.22;97677.00;6242020;22;20090;-75
2022/04/08 04:19:44;;;;;;;0.00;0.00;;;;;;;14.01;52.07;97681.06;6274390;22;20031;-79
2022/04/08 04:22:10;;;;;;;0.00;0.00;;;;;;;14.27;51.55;97688.06;6247423;22;20082;-82
2022/04/08 04:24:35;;;;;;;0.10;0.10;;;;;;;14.56;51.03;97698.66;6247623;22;20412;-81
2022/04/08 04:27:00;;;;;;;0.00;0.00;;;;;;;14.93;49.88;97703.28;6246852;22;20075;-78
2022/04/08 04:29:26;;;;;;;0.00;0.00;;;;;;;15.27;49.57;97703.94;6274120;22;20031;-74
2022/04/08 04:31:55;;;;;;;0.10;0.10;;;;;;;15.69;48.46;97716.25;6274033;22;20004;-71
2022/04/08 04:34:22;;;;;;;0.20;0.20;;;;;;;16.10;47.37;97714.31;6273540;22;20045;-74
2022/04/08 04:36:47;;;;;;;0.10;0.10;;;;;;;16.54;46.54;97707.31;6273663;22;20007;-73
2022/04/08 04:39:12;;;;;;;0.00;0.00;;;;;;;16.89;45.71;97728.97;6246813;22;20010;-74
2022/04/08 04:41:38;;;;;;;0.10;0.10;;;;;;;17.28;44.51;97728.31;6274311;22;20004;-74
2022/04/08 04:44:03;;;;;;;0.00;0.00;;;;;;;17.66;43.80;97726.81;6273814;22;20031;-74
2022/04/08 04:46:29;;;;;;;0.08;0.08;;;;;;;18.10;42.64;97735.78;6273868;22;20026;-74
2022/04/08 04:48:54;;;;;;;0.05;0.05;;;;;;;18.52;42.15;97735.78;6274189;22;20008;-74
2022/04/08 04:51:20;;;;;;;0.03;0.03;;;;;;;18.95;41.44;97745.78;6273855;22;20413;-72
2022/04/08 04:53:45;;;;;;;0.10;0.10;;;;;;;19.34;40.35;97751.75;6273935;22;20008;-74
2022/04/08 04:56:10;;;;;;;0.00;0.00;;;;;;;19.75;39.06;97763.91;6273126;22;20012;-74
2022/04/08 04:58:36;;;;;;;0.00;0.00;;;;;;;20.13;38.91;97759.34;6274397;22;20000;-74
2022/04/08 05:01:01;;;;;;;0.20;0.20;;;;;;;20.58;38.38;97762.09;6274419;22;20006;-74
2022/04/08 05:03:26;;;;;;;0.20;0.20;;;;;;;20.91;36.75;97772.13;6273015;22;20432;-74
2022/04/08 05:05:53;;;;;;;0.00;0.00;;;;;;;21.26;36.25;97770.84;6273195;22;20008;-73
2022/04/08 05:08:20;;;;;;;0.00;0.00;;;;;;;21.54;35.61;97777.56;6273648;22;20006;-73
2022/04/08 05:10:46;;;;;;;0.00;0.00;;;;;;;21.83;35.32;97780.47;6273720;22;20511;-74
2022/04/08 05:13:12;;;;;;;0.00;0.00;;;;;;;22.10;34.68;97779.44;6273676;22;20003;-73
2022/04/08 05:15:38;;;;;;;0.00;0.00;;;;;;;22.35;33.82;97774.81;6272861;22;20437;-73
2022/04/08 05:18:04;;;;;;;0.00;0.00;;;;;;;22.55;33.33;97786.16;6273988;22;20000;-74
2022/04/08 05:20:30;;;;;;;0.00;0.00;;;;;;;22.72;32.94;97778.41;6274236;22;20065;-74
2022/04/08 05:22:55;;;;;;;0.08;0.08;;;;;;;22.86;32.64;97781.13;6246862;22;20391;-73
2022/04/08 05:25:21;;;;;;;0.00;0.00;;;;;;;22.94;32.48;97792.81;6273865;22;20010;-73
2022/04/08 05:27:46;;;;;;;0.00;0.00;;;;;;;22.94;32.14;97778.41;6274140;22;20004;-73
2022/04/08 05:30:18;;;;;;;0.00;0.00;;;;;;;22.85;31.91;97798.66;6273820;22;20007;-73
2022/04/08 05:32:45;;;;;;;0.00;0.00;;;;;;;22.69;31.88;97795.53;6274150;22;20004;-74
2022/04/08 05:35:10;;;;;;;0.10;0.10;;;;;;;22.65;31.70;97805.66;6273837;22;20065;-74
2022/04/08 05:37:42;;;;;;;0.00;0.00;;;;;;;22.54;32.49;97811.06;6274049;22;20008;-73
2022/04/08 05:40:09;;;;;;;0.00;0.00;;;;;;;22.53;31.99;97809.50;6246657;22;20064;-73
2022/04/08 05:42:34;;;;;;;0.00;0.00;;;;;;;22.55;32.42;97827.03;6273899;22;20004;-73
2022/04/08 05:45:00;;;;;;;0.00;0.00;;;;;;;22.62;32.37;97828.19;6273732;22;20064;-73
2022/04/08 05:47:28;;;;;;;0.05;0.05;;;;;;;22.73;31.52;97829.03;6273312;22;20102;-73
2022/04/08 05:49:58;;;;;;;0.03;0.03;;;;;;;22.73;31.99;97839.91;6273655;22;20353;-74
2022/04/08 05:52:24;;;;;;;0.00;0.00;;;;;;;22.77;31.69;97848.09;6273627;22;20034;-73
2022/04/08 05:54:49;;;;;;;0.00;0.00;;;;;;;22.78;31.97;97852.41;6273895;22;20011;-73
2022/04/08 05:57:17;;;;;;;0.00;0.00;;;;;;;22.76;31.65;97854.72;6273274;22;20011;-73
2022/04/08 05:59:42;;;;;;;0.00;0.00;;;;;;;22.72;31.15;97860.16;6273979;22;20004;-73
2022/04/08 06:02:08;;;;;;;0.10;0.10;;;;;;;22.66;31.69;97870.66;6273549;22;20030;-73
2022/04/08 06:04:33;;;;;;;0.00;0.00;;;;;;;22.65;31.60;97871.81;6273737;22;20000;-73
2022/04/08 06:06:59;;;;;;;0.10;0.10;;;;;;;22.66;31.34;97873.38;6273859;22;20010;-73
2022/04/08 06:09:24;;;;;;;0.00;0.00;;;;;;;22.68;31.63;97886.63;6273586;22;20011;-73
2022/04/08 06:11:49;;;;;;;0.00;0.00;;;;;;;22.72;31.57;97887.41;6273519;22;20411;-73
2022/04/08 06:14:15;;;;;;;0.00;0.00;;;;;;;22.76;31.44;97895.59;6272911;22;20007;-73
2022/04/08 06:16:42;;;;;;;0.00;0.00;;;;;;;22.81;31.36;97892.50;6272321;22;20012;-73
2022/04/08 06:19:08;;;;;;;0.05;0.05;;;;;;;22.77;31.19;97903.38;6272492;22;20429;-73
2022/04/08 06:21:33;;;;;;;0.00;0.00;;;;;;;22.68;30.43;97909.19;6272711;22;20000;-73
2022/04/08 06:23:58;;;;;;;0.10;0.10;;;;;;;22.45;31.06;97904.06;6245607;22;19999;-73
2022/04/08 06:26:24;;;;;;;0.10;0.10;;;;;;;22.25;31.37;97903.53;6272188;22;20003;-73
2022/04/08 06:28:49;;;;;;;0.30;0.30;;;;;;;22.09;31.91;97912.03;6271721;22;20004;-73
2022/04/08 06:31:15;;;;;;;0.10;0.10;;;;;;;21.91;31.95;97914.66;6272605;22;20000;-73
2022/04/08 06:33:41;;;;;;;0.00;0.00;;;;;;;21.77;32.09;97915.34;6272970;22;20008;-73
2022/04/08 06:36:07;;;;;;;0.00;0.00;;;;;;;21.70;31.87;97920.72;6271352;22;20030;-73
2022/04/08 06:38:33;;;;;;;0.03;0.03;;;;;;;21.59;32.43;97917.94;6271292;22;20093;-73
2022/04/08 06:40:58;;;;;;;0.00;0.00;;;;;;;21.47;32.29;97916.28;6272826;22;20008;-73
2022/04/08 06:43:23;;;;;;;0.30;0.30;;;;;;;21.40;32.70;97922.44;6272149;22;20011;-72
2022/04/08 06:45:49;;;;;;;0.00;0.00;;;;;;;21.33;32.68;97937.91;6245526;22;20458;-73
2022/04/08 06:48:15;;;;;;;0.00;0.00;;;;;;;21.23;32.98;97947.53;6271928;22;20027;-73
2022/04/08 06:50:40;;;;;;;0.00;0.00;;;;;;;21.22;33.20;97941.28;6272497;22;20037;-73
2022/04/08 06:53:06;;;;;;;0.00;0.00;;;;;;;21.20;32.67;97948.25;6272265;22;20061;-73
2022/04/08 06:55:32;;;;;;;0.10;0.10;;;;;;;21.17;33.09;97952.53;6244428;22;20004;-73
2022/04/08 06:57:59;;;;;;;0.00;0.00;;;;;;;21.20;32.68;97951.78;6273747;22;20041;-73
2022/04/08 07:00:25;;;;;;;0.00;0.00;;;;;;;21.18;32.42;97956.00;6274900;22;20003;-73
2022/04/08 07:02:50;;;;;;;0.00;0.00;;;;;;;21.07;32.23;97953.22;6275092;22;20016;-73
2022/04/08 07:05:16;;;;;;;0.00;0.00;;;;;;;21.02;32.72;97961.69;6247921;22;20035;-73
2022/04/08 07:07:45;;;;;;;0.20;0.20;;;;;;;21.00;32.76;97955.84;6275559;22;20000;-73
2022/04/08 07:10:11;;;;;;;0.10;0.10;;;;;;;21.05;32.42;97969.88;6275162;22;20008;-73
2022/04/08 07:12:37;;;;;;;0.00;0.00;;;;;;;21.06;32.07;97966.00;6275443;22;20397;-73
2022/04/08 07:15:04;;;;;;;0.00;0.00;;;;;;;21.05;32.31;97961.72;6274759;22;20000;-73
2022/04/08 07:17:32;;;;;;;0.10;0.10;;;;;;;21.13;32.17;97968.03;6275021;22;20016;-73
2022/04/08 07:19:58;;;;;;;0.43;0.43;;;;;;;21.14;32.15;97979.66;6274888;22;20027;-73
2022/04/08 07:22:24;;;;;;;0.00;0.00;;;;;;;21.10;31.53;97976.91;6274264;22;20567;-73
2022/04/08 07:24:50;;;;;;;0.10;0.10;;;;;;;21.09;31.75;97975.34;6275060;22;20000;-73
2022/04/08 07:27:17;;;;;;;0.00;0.00;;;;;;;21.14;31.80;97994.06;6274836;22;20004;-73
2022/04/08 07:29:42;;;;;;;0.00;0.00;;;;;;;21.20;31.80;97989.84;6274893;22;20404;-73
2022/04/08 07:32:08;;;;;;;0.00;0.00;;;;;;;21.23;31.53;97994.53;6274833;22;20000;-73
2022/04/08 07:34:35;;;;;;;0.08;0.08;;;;;;;21.27;32.17;97994.56;6274566;22;20069;-73
2022/04/08 07:37:02;;;;;;;0.00;0.00;;;;;;;21.31;32.21;97997.31;6275340;22;20007;-73
2022/04/08 07:39:27;;;;;;;0.10;0.10;;;;;;;21.32;32.24;97996.16;6274674;22;20000;-74
2022/04/08 07:41:52;;;;;;;0.00;0.00;;;;;;;21.36;31.91;97995.06;6275237;22;20004;-73
2022/04/08 07:44:18;;;;;;;0.00;0.00;;;;;;;21.42;31.78;97999.00;6274810;22;20434;-73
2022/04/08 07:46:43;;;;;;;0.00;0.00;;;;;;;21.47;31.72;97997.06;6247902;22;20007;-73
2022/04/08 07:49:09;;;;;;;0.00;0.00;;;;;;;21.55;31.37;98002.19;6275119;22;20004;-73
2022/04/08 07:51:34;;;;;;;0.00;0.00;;;;;;;21.47;31.17;97992.44;6274832;22;20014;-73
2022/04/08 07:54:00;;;;;;;0.00;0.00;;;;;;;21.49;30.91;97984.66;6274959;22;20415;-73
2022/04/08 07:56:25;;;;;;;0.00;0.00;;;;;;;21.49;31.08;97983.88;6274684;22;20421;-73
2022/04/08 07:58:50;;;;;;;0.20;0.20;;;;;;;21.48;31.01;97996.69;6275023;22;20010;-73
2022/04/08 08:01:16;;;;;;;0.00;0.00;;;;;;;21.46;31.52;97998.22;6274781;22;20396;-73
2022/04/08 08:03:45;;;;;;;0.00;0.00;;;;;;;21.53;31.87;97990.13;6274738;22;20004;-73
2022/04/08 08:06:11;;;;;;;0.20;0.20;;;;;;;21.58;31.06;97976.22;6274663;22;20000;-73
2022/04/08 08:08:37;;;;;;;0.15;0.15;;;;;;;21.59;31.11;97985.94;6273804;22;20007;-74
2022/04/08 08:11:03;;;;;;;0.10;0.10;;;;;;;21.59;30.87;97981.31;6274598;22;20007;-73
2022/04/08 08:13:29;;;;;;;0.00;0.00;;;;;;;21.55;30.62;97990.56;6274443;22;20081;-73
2022/04/08 08:15:54;;;;;;;0.32;0.32;;;;;;;21.56;31.33;97992.13;6274408;22;20461;-73
2022/04/08 08:18:21;;;;;;;0.00;0.00;;;;;;;21.61;31.84;97988.31;6274597;22;20007;-73
2022/04/08 08:20:48;;;;;;;0.00;0.00;;;;;;;21.63;31.30;97989.50;6274798;22;20004;-73
2022/04/08 08:23:13;;;;;;;0.10;0.10;;;;;;;21.67;31.62;97990.28;6274667;22;20753;-73
2022/04/08 08:25:40;;;;;;;0.00;0.00;;;;;;;21.77;31.18;97991.53;6274491;22;20000;-73
2022/04/08 08:28:06;;;;;;;0.00;0.00;;;;;;;21.82;30.85;97990.41;6274708;22;20445;-74
2022/04/08 08:30:32;;;;;;;0.10;0.10;;;;;;;21.84;30.63;97991.59;6273984;22;20038;-73
2022/04/08 08:32:59;;;;;;;0.00;0.00;;;;;;;21.90;29.92;97992.81;6274404;22;20334;-74
2022/04/08 08:35:25;;;;;;;0.00;0.00;;;;;;;21.92;29.33;98011.47;6274306;22;20008;-73
2022/04/08 08:37:51;;;;;;;0.00;0.00;;;;;;;21.94;30.04;98008.41;6274514;22;20440;-73
2022/04/08 08:40:18;;;;;;;0.10;0.10;;;;;;;22.02;30.49;98015.44;6274210;22;19999;-73
2022/04/08 08:42:44;;;;;;;0.00;0.00;;;;;;;22.09;29.76;98022.88;6274586;22;20004;-73
2022/04/08 08:45:12;;;;;;;0.00;0.00;;;;;;;22.15;29.83;98033.03;6274322;22;20057;-72
2022/04/08 08:47:38;;;;;;;0.52;0.52;;;;;;;22.19;30.08;98028.41;6274001;22;20004;-73
2022/04/08 08:50:06;;;;;;;0.00;0.00;;;;;;;22.23;29.72;98039.31;6274412;22;20103;-73
2022/04/08 08:52:32;;;;;;;0.00;0.00;;;;;;;22.23;29.21;98040.09;6274098;22;19999;-73
2022/04/08 08:54:59;;;;;;;0.10;0.10;;;;;;;22.30;29.13;98042.09;6274362;22;20000;-73
2022/04/08 08:57:24;;;;;;;0.03;0.03;;;;;;;22.30;29.22;98049.47;6273695;22;20110;-73
2022/04/08 09:00:02;;;;;;;0.00;0.00;;;;;;;22.33;28.63;98051.44;6274431;22;20083;-73
2022/04/08 09:02:27;;;;;;;0.03;0.03;;;;;;;22.34;28.95;98048.34;6274063;22;20046;-74
2022/04/08 09:04:53;;;;;;;0.00;0.00;;;;;;;22.35;28.04;98044.47;6273867;22;20007;-73
2022/04/08 09:07:25;;;;;;;0.03;0.03;;;;;;;22.37;27.96;98044.06;6273716;22;20090;-74
2022/04/08 09:09:54;;;;;;;0.00;0.00;;;;;;;22.40;28.47;98046.09;6274371;22;20011;-74
2022/04/08 09:12:22;;;;;;;0.00;0.00;;;;;;;22.39;28.55;98039.84;6274040;22;20006;-74
2022/04/08 09:14:49;;;;;;;0.00;0.00;;;;;;;22.44;27.94;98033.25;6274125;22;20007;-74
2022/04/08 09:17:19;;;;;;;0.00;0.00;;;;;;;22.45;27.07;98028.56;6274213;22;20016;-74
2022/04/08 09:19:49;;;;;;;0.00;0.00;;;;;;;22.49;27.76;98032.13;6273680;22;20388;-72
2022/04/08 09:22:15;;;;;;;0.10;0.10;;;;;;;22.54;27.51;98023.56;6273868;22;20000;-76
2022/04/08 09:24:41;;;;;;;0.10;0.10;;;;;;;22.59;27.70;98017.00;6273416;22;20065;-74
2022/04/08 09:27:06;;;;;;;0.10;0.10;;;;;;;22.61;26.92;98025.56;6274033;22;20031;-74
2022/04/08 09:29:34;;;;;;;0.03;0.03;;;;;;;22.62;26.56;98017.00;6273338;22;20116;-74
2022/04/08 09:31:59;;;;;;;0.17;0.17;;;;;;;22.69;27.63;98017.03;6273768;22;20014;-74
2022/04/08 09:34:25;;;;;;;0.00;0.00;;;;;;;22.74;26.33;98013.19;6273283;22;20078;-74
2022/04/08 09:36:51;;;;;;;0.22;0.22;;;;;;;22.77;26.59;98014.34;6274037;22;20014;-74
2022/04/08 09:39:16;;;;;;;0.10;0.10;;;;;;;22.82;25.54;98025.66;6273601;22;20075;-74
2022/04/08 09:41:49;;;;;;;0.00;0.00;;;;;;;22.84;25.13;98028.00;6273428;22;20011;-75
2022/04/08 09:44:22;;;;;;;0.00;0.00;;;;;;;22.82;25.27;98022.94;6273848;22;20041;-74
2022/04/08 09:46:48;;;;;;;0.00;0.00;;;;;;;22.84;25.07;98028.78;6273725;22;20008;-74
2022/04/08 09:49:13;;;;;;;0.00;0.00;;;;;;;22.88;25.25;98039.69;6273667;22;20003;-74
2022/04/08 09:51:40;;;;;;;0.03;0.03;;;;;;;22.91;25.31;98038.94;6273738;22;20088;-74
2022/04/08 09:54:09;;;;;;;0.00;0.00;;;;;;;22.94;25.42;98034.69;6274037;22;20004;-74
2022/04/08 09:56:36;;;;;;;0.00;0.00;;;;;;;23.00;25.67;98030.41;6273527;22;20000;-74
2022/04/08 09:59:32;;;;;;;0.00;0.00;;;;;;;23.01;25.35;98031.97;6273871;22;20035;-74
2022/04/08 10:02:01;;;;;;;0.20;0.20;;;;;;;23.08;25.69;98037.44;6273695;22;20601;-74
2022/04/08 10:04:28;;;;;;;0.10;0.10;;;;;;;23.04;25.99;98023.00;6273423;22;20337;-73
2022/04/08 10:06:53;;;;;;;0.10;0.10;;;;;;;23.05;26.50;98035.47;6273832;22;20014;-75
2022/04/08 10:09:21;;;;;;;0.10;0.10;;;;;;;23.13;26.30;98045.25;6273807;22;20004;-74
2022/04/08 10:11:50;;;;;;;;;;;;;;;23.18;26.13;98038.69;6274262;22;20004;-74
2022/04/08 10:14:30;;;;;;;0.00;0.00;;;;;;;23.16;25.21;98043.72;6273747;22;19910;-75
2022/04/08 10:16:57;;;;;;;0.00;0.00;;;;;;;23.14;25.82;98040.56;6273433;22;20016;-74
2022/04/08 10:19:23;;;;;;;0.13;0.13;;;;;;;23.18;25.56;98036.72;6273160;22;20003;-75
2022/04/08 10:21:54;;;;;;;0.10;0.10;;;;;;;23.23;26.17;98034.78;6273691;22;20516;-75
2022/04/08 10:24:24;;;;;;;0.00;0.00;;;;;;;23.25;25.97;98041.41;6273457;22;20010;-74
2022/04/08 10:27:10;;;;;;;0.10;0.10;;;;;;;23.31;25.72;98044.53;6273570;22;20403;-74
2022/04/08 10:29:36;;;;;;;0.00;0.00;;;;;;;23.29;24.84;98035.97;6269610;22;20095;-73
2022/04/08 10:32:13;;;;;;;0.05;0.05;;;;;;;23.37;25.59;98034.81;6273449;22;20094;-74
2022/04/08 10:34:39;;;;;;;0.10;0.10;;;;;;;23.39;24.92;98043.41;6275206;22;20008;-73
2022/04/08 10:37:34;;;;;;;0.00;0.00;;;;;;;23.47;23.96;98036.81;6248572;22;20125;-73
2022/04/08 10:40:02;;;;;;;0.00;0.00;;;;;;;23.46;23.89;98035.22;6248804;22;20011;-73
2022/04/08 10:42:29;;;;;;;0.00;0.00;;;;;;;23.54;23.33;98040.72;6275423;22;20445;-73
2022/04/08 10:44:55;;;;;;;0.10;0.10;;;;;;;23.56;23.65;98039.16;6275530;22;20049;-74
2022/04/08 10:47:21;;;;;;;0.00;0.00;;;;;;;23.54;22.57;98025.09;6275306;22;20083;-73
2022/04/08 10:49:50;;;;;;;0.00;0.00;;;;;;;23.61;22.87;98048.91;6275514;22;20008;-73
2022/04/08 10:52:18;;;;;;;0.00;0.00;;;;;;;23.64;22.00;98046.19;6275367;22;20026;-73
2022/04/08 10:54:44;;;;;;;0.00;0.00;;;;;;;23.64;22.16;98040.72;6275402;22;20042;-73
2022/04/08 10:57:09;;;;;;;0.20;0.20;;;;;;;23.66;21.90;98040.31;6275465;22;20031;-73
2022/04/08 10:59:35;;;;;;;0.13;0.13;;;;;;;23.71;22.20;98042.66;6274898;22;20054;-73
2022/04/08 11:02:05;;;;;;;0.00;0.00;;;;;;;23.72;21.95;98038.00;6247953;22;20057;-73
2022/04/08 11:04:31;;;;;;;0.00;0.00;;;;;;;23.74;21.41;98041.91;6274822;22;20008;-73
2022/04/08 11:07:05;;;;;;;0.00;0.00;;;;;;;23.77;21.65;98049.28;6275052;22;20004;-73
2022/04/08 11:09:31;;;;;;;0.00;0.00;;;;;;;23.78;22.39;98044.63;6274695;22;20018;-73
2022/04/08 11:11:56;;;;;;;0.05;0.05;;;;;;;23.80;23.39;98040.34;6275296;22;20004;-73
2022/04/08 11:14:22;;;;;;;0.05;0.05;;;;;;;23.83;23.32;98049.69;6274717;22;20349;-73
2022/04/08 11:16:51;;;;;;;0.20;0.20;;;;;;;23.85;24.15;98052.03;6275075;22;20073;-73
2022/04/08 11:19:21;;;;;;;0.10;0.10;;;;;;;23.86;24.04;98050.88;6274966;22;20004;-73
2022/04/08 11:21:47;;;;;;;0.00;0.00;;;;;;;23.90;24.37;98054.38;6274315;22;20031;-73
2022/04/08 11:24:16;;;;;;;0.00;0.00;;;;;;;23.94;23.74;98047.00;6274598;22;20027;-73
2022/04/08 11:26:47;;;;;;;0.00;0.00;;;;;;;23.98;23.22;98043.09;6275009;22;20007;-73
2022/04/08 11:29:17;;;;;;;0.00;0.00;;;;;;;24.05;23.78;98036.09;6275302;22;20010;-73
2022/04/08 11:31:45;;;;;;;0.00;0.00;;;;;;;24.06;22.81;98027.50;6274591;22;20054;-73